createdAt,value
2023-03-29T00:00:15.939Z,-2.48
2023-03-29T00:03:04.641Z,-2.47
2023-03-29T00:05:35.145Z,-2.48
2023-03-29T00:08:04.383Z,-2.48
2023-03-29T00:10:34.376Z,-2.48
2023-03-29T00:13:02.771Z,-2.49
2023-03-29T00:15:30.862Z,-2.50
2023-03-29T00:17:58.905Z,-2.51
2023-03-29T00:20:28.841Z,-2.52
2023-03-29T00:22:56.823Z,-2.51
2023-03-29T00:25:24.776Z,-2.53
2023-03-29T00:27:52.819Z,-2.54
2023-03-29T00:30:20.994Z,-2.54
2023-03-29T00:32:48.905Z,-2.54
2023-03-29T00:35:17.240Z,-2.55
2023-03-29T00:37:47.207Z,-2.55
2023-03-29T00:40:15.624Z,-2.54
2023-03-29T00:42:46.851Z,-2.51
2023-03-29T00:45:21.974Z,-2.49
2023-03-29T00:47:57.086Z,-2.46
2023-03-29T00:50:36.337Z,-2.44
2023-03-29T00:53:21.627Z,-2.43
2023-03-29T00:55:54.742Z,-2.43
2023-03-29T00:58:32.174Z,-2.45
2023-03-29T01:01:10.979Z,-2.46
2023-03-29T01:03:47.129Z,-2.48
2023-03-29T01:06:19.011Z,-2.49
2023-03-29T01:08:56.428Z,-2.49
2023-03-29T01:11:29.135Z,-2.49
2023-03-29T01:14:02.758Z,-2.50
2023-03-29T01:16:33.524Z,-2.51
2023-03-29T01:19:02.365Z,-2.51
2023-03-29T01:21:51.638Z,-2.50
2023-03-29T01:24:42.129Z,-2.49
2023-03-29T01:27:50.150Z,-2.50
2023-03-29T01:30:23.584Z,-2.50
2023-03-29T01:32:59.225Z,-2.49
2023-03-29T01:35:42.729Z,-2.49
2023-03-29T01:38:18.587Z,-2.50
2023-03-29T01:40:46.566Z,-2.51
2023-03-29T01:43:36.310Z,-2.50
2023-03-29T01:46:22.908Z,-2.51
2023-03-29T01:48:56.679Z,-2.51
2023-03-29T01:51:37.895Z,-2.52
2023-03-29T01:54:18.517Z,-2.52
2023-03-29T01:56:49.664Z,-2.52
2023-03-29T01:59:22.946Z,-2.51
2023-03-29T02:01:55.439Z,-2.51
2023-03-29T02:04:29.207Z,-2.52
2023-03-29T02:07:00.709Z,-2.54
2023-03-29T02:09:30.336Z,-2.55
2023-03-29T02:12:01.071Z,-2.58
2023-03-29T02:14:30.449Z,-2.59
2023-03-29T02:17:18.807Z,-2.61
2023-03-29T02:19:50.482Z,-2.63
2023-03-29T02:22:24.648Z,-2.65
2023-03-29T02:24:59.286Z,-2.68
2023-03-29T02:27:29.661Z,-2.71
2023-03-29T02:29:58.346Z,-2.74
2023-03-29T02:32:52.465Z,-2.74
2023-03-29T02:35:51.226Z,-2.75
2023-03-29T02:38:20.841Z,-2.78
2023-03-29T02:40:48.932Z,-2.80
2023-03-29T02:43:17.135Z,-2.80
2023-03-29T02:45:46.018Z,-2.80
2023-03-29T02:48:18.785Z,-2.81
2023-03-29T02:50:50.498Z,-2.82
2023-03-29T02:53:24.165Z,-2.81
2023-03-29T02:55:52.861Z,-2.81
2023-03-29T02:58:28.724Z,-2.82
2023-03-29T03:01:01.140Z,-2.84
2023-03-29T03:03:29.322Z,-2.83
2023-03-29T03:05:57.849Z,-2.83
2023-03-29T03:08:26.240Z,-2.85
2023-03-29T03:10:54.227Z,-2.84
2023-03-29T03:13:22.244Z,-2.81
2023-03-29T03:15:50.509Z,-2.79
2023-03-29T03:18:18.353Z,-2.78
2023-03-29T03:21:01.841Z,-2.80
2023-03-29T03:23:30.441Z,-2.85
2023-03-29T03:25:59.106Z,-2.88
2023-03-29T03:28:27.469Z,-2.88
2023-03-29T03:30:55.522Z,-2.88
2023-03-29T03:33:24.182Z,-2.89
2023-03-29T03:35:52.755Z,-2.90
2023-03-29T03:38:20.662Z,-2.89
2023-03-29T03:40:58.908Z,-2.88
2023-03-29T03:43:28.210Z,-2.88
2023-03-29T03:45:56.489Z,-2.88
2023-03-29T03:48:25.307Z,-2.89
2023-03-29T03:50:58.384Z,-2.91
2023-03-29T03:53:27.429Z,-2.94
2023-03-29T03:55:58.516Z,-2.98
2023-03-29T03:58:27.195Z,-3.02
2023-03-29T04:00:55.098Z,-3.03
2023-03-29T04:03:24.149Z,-3.04
2023-03-29T04:05:52.311Z,-3.03
2023-03-29T04:08:22.558Z,-3.03
2023-03-29T04:10:56.876Z,-3.03
2023-03-29T04:13:25.839Z,-3.07
2023-03-29T04:15:55.774Z,-3.11
2023-03-29T04:18:24.405Z,-3.16
2023-03-29T04:20:52.422Z,-3.21
2023-03-29T04:23:20.400Z,-3.26
2023-03-29T04:25:48.322Z,-3.30
2023-03-29T04:28:16.243Z,-3.34
2023-03-29T04:30:46.587Z,-3.39
2023-03-29T04:33:14.775Z,-3.45
2023-03-29T04:35:42.809Z,-3.48
2023-03-29T04:38:11.463Z,-3.48
2023-03-29T04:40:39.671Z,-3.48
2023-03-29T04:43:07.599Z,-3.47
2023-03-29T04:45:35.483Z,-3.47
2023-03-29T04:48:03.510Z,-3.47
2023-03-29T04:50:32.079Z,-3.48
2023-03-29T04:53:00.389Z,-3.51
2023-03-29T04:55:28.306Z,-3.52
2023-03-29T04:57:56.154Z,-3.50
2023-03-29T05:00:27.322Z,-3.48
2023-03-29T05:02:55.499Z,-3.48
2023-03-29T05:05:24.504Z,-3.49
2023-03-29T05:07:52.961Z,-3.50
2023-03-29T05:10:20.872Z,-3.51
2023-03-29T05:12:53.932Z,-3.49
2023-03-29T05:15:22.075Z,-3.46
2023-03-29T05:17:50.137Z,-3.43
2023-03-29T05:20:18.231Z,-3.41
2023-03-29T05:22:46.108Z,-3.39
2023-03-29T05:25:14.184Z,-3.37
2023-03-29T05:27:42.691Z,-3.35
2023-03-29T05:30:11.672Z,-3.32
2023-03-29T05:32:39.688Z,-3.29
2023-03-29T05:35:08.445Z,-3.27
2023-03-29T05:37:36.992Z,-3.27
2023-03-29T05:40:08.518Z,-3.29
2023-03-29T05:42:38.033Z,-3.29
2023-03-29T05:45:06.837Z,-3.27
2023-03-29T05:47:34.637Z,-3.18
2023-03-29T05:50:02.480Z,-3.10
2023-03-29T05:52:30.848Z,-3.03
2023-03-29T05:54:58.733Z,-2.96
2023-03-29T05:57:28.693Z,-2.92
2023-03-29T05:59:57.052Z,-2.88
2023-03-29T06:02:25.906Z,-2.86
2023-03-29T06:04:54.222Z,-2.84
2023-03-29T06:07:23.597Z,-2.82
2023-03-29T06:09:51.814Z,-2.80
2023-03-29T06:12:21.060Z,-2.79
2023-03-29T06:14:49.561Z,-2.78
2023-03-29T06:17:17.570Z,-2.74
2023-03-29T06:19:45.600Z,-2.70
2023-03-29T06:22:14.905Z,-2.70
2023-03-29T06:24:43.096Z,-2.68
2023-03-29T06:27:11.326Z,-2.65
2023-03-29T06:29:39.562Z,-2.60
2023-03-29T06:32:07.766Z,-2.56
2023-03-29T06:34:38.512Z,-2.52
2023-03-29T06:37:06.619Z,-2.52
2023-03-29T06:39:34.583Z,-2.47
2023-03-29T06:42:13.066Z,-2.42
2023-03-29T06:44:49.811Z,-2.41
2023-03-29T06:47:17.792Z,-2.40
2023-03-29T06:49:45.793Z,-2.37
2023-03-29T06:52:13.849Z,-2.35
2023-03-29T06:54:42.122Z,-2.34
2023-03-29T06:57:10.531Z,-2.33
2023-03-29T06:59:38.471Z,-2.31
2023-03-29T07:02:07.411Z,-2.29
2023-03-29T07:04:35.490Z,-2.29
2023-03-29T07:07:04.206Z,-2.28
2023-03-29T07:09:34.115Z,-2.24
2023-03-29T07:12:02.616Z,-2.23
2023-03-29T07:14:31.467Z,-2.22
2023-03-29T07:17:00.000Z,-2.22
2023-03-29T07:19:30.292Z,-2.20
2023-03-29T07:21:58.770Z,-2.18
2023-03-29T07:24:26.784Z,-2.14
2023-03-29T07:27:03.499Z,-2.09
2023-03-29T07:29:32.899Z,-2.00
2023-03-29T07:32:01.007Z,-1.90
2023-03-29T07:34:30.067Z,-1.82
2023-03-29T07:36:57.897Z,-1.76
2023-03-29T07:39:26.260Z,-1.69
2023-03-29T07:41:57.555Z,-1.65
2023-03-29T07:44:27.692Z,-1.64
2023-03-29T07:46:55.650Z,-1.64
2023-03-29T07:49:23.618Z,-1.63
2023-03-29T07:51:51.598Z,-1.62
2023-03-29T07:54:20.004Z,-1.56
2023-03-29T07:56:48.124Z,-1.53
2023-03-29T07:59:16.612Z,-1.52
2023-03-29T08:01:44.847Z,-1.50
2023-03-29T08:04:12.798Z,-1.48
2023-03-29T08:06:40.750Z,-1.44
2023-03-29T08:09:08.813Z,-1.36
2023-03-29T08:11:39.771Z,-1.30
2023-03-29T08:14:09.093Z,-1.23
2023-03-29T08:16:37.170Z,-1.09
2023-03-29T08:19:05.288Z,-1.01
2023-03-29T08:21:33.199Z,-0.95
2023-03-29T08:24:01.207Z,-0.92
2023-03-29T08:26:29.173Z,-0.91
2023-03-29T08:28:57.179Z,-0.86
2023-03-29T08:31:25.193Z,-0.80
2023-03-29T08:33:53.365Z,-0.75
2023-03-29T08:36:21.297Z,-0.79
2023-03-29T08:38:50.541Z,-0.81
2023-03-29T08:41:52.344Z,-0.82
2023-03-29T08:44:43.791Z,-0.84
2023-03-29T08:47:36.815Z,-0.85
2023-03-29T08:50:06.743Z,-0.83
2023-03-29T08:52:36.797Z,-0.75
2023-03-29T08:55:13.954Z,-0.72
2023-03-29T08:57:48.093Z,-0.73
2023-03-29T09:00:51.321Z,-0.72
2023-03-29T09:03:23.685Z,-0.66
2023-03-29T09:06:00.013Z,-0.62
2023-03-29T09:08:27.961Z,-0.62
2023-03-29T09:11:12.724Z,-0.66
2023-03-29T09:14:12.754Z,-0.55
2023-03-29T09:17:17.170Z,-0.39
2023-03-29T09:19:54.274Z,-0.31
2023-03-29T09:22:51.056Z,-0.11
2023-03-29T09:25:25.303Z,0.11
2023-03-29T09:28:11.544Z,0.24
2023-03-29T09:30:44.860Z,0.46
2023-03-29T09:33:24.661Z,0.56
2023-03-29T09:36:09.343Z,0.63
2023-03-29T09:38:42.782Z,0.71
2023-03-29T09:41:35.933Z,0.67
2023-03-29T09:44:23.987Z,0.63
2023-03-29T09:47:06.205Z,0.70
2023-03-29T09:49:39.989Z,0.81
2023-03-29T09:52:14.141Z,0.80
2023-03-29T09:54:42.763Z,0.92
2023-03-29T09:57:16.906Z,1.06
2023-03-29T09:59:47.341Z,1.24
2023-03-29T10:02:15.600Z,1.37
2023-03-29T10:04:43.531Z,1.42
2023-03-29T10:07:20.586Z,1.57
2023-03-29T10:09:50.648Z,1.70
2023-03-29T10:12:20.047Z,1.86
2023-03-29T10:14:54.287Z,1.92
2023-03-29T10:17:25.235Z,2.02
2023-03-29T10:19:58.238Z,2.17
2023-03-29T10:22:32.499Z,2.42
2023-03-29T10:25:00.757Z,2.56
2023-03-29T10:27:31.113Z,2.65
2023-03-29T10:30:07.462Z,2.68
2023-03-29T10:32:37.082Z,2.58
2023-03-29T10:35:13.801Z,2.46
2023-03-29T10:37:43.669Z,2.39
2023-03-29T10:40:51.873Z,2.41
2023-03-29T10:43:19.813Z,2.53
2023-03-29T10:45:54.347Z,2.74
2023-03-29T10:48:29.907Z,3.00
2023-03-29T10:51:01.375Z,3.14
2023-03-29T10:53:36.535Z,3.00
2023-03-29T10:56:29.364Z,2.95
2023-03-29T10:59:18.852Z,3.26
2023-03-29T11:02:14.168Z,3.59
2023-03-29T11:04:57.299Z,3.67
2023-03-29T11:07:48.364Z,3.52
2023-03-29T11:10:34.795Z,3.30
2023-03-29T11:13:21.042Z,3.27
2023-03-29T11:16:07.355Z,3.37
2023-03-29T11:18:56.834Z,3.55
2023-03-29T11:21:39.709Z,3.65
2023-03-29T11:24:29.649Z,3.63
2023-03-29T11:27:31.342Z,3.53
2023-03-29T11:30:27.054Z,3.56
2023-03-29T11:33:07.301Z,3.64
2023-03-29T11:35:48.435Z,3.70
2023-03-29T11:38:22.919Z,3.68
2023-03-29T11:40:55.261Z,3.50
2023-03-29T11:43:49.019Z,3.22
2023-03-29T11:46:23.534Z,3.11
2023-03-29T11:49:30.112Z,3.03
2023-03-29T11:52:17.796Z,2.74
2023-03-29T11:54:45.749Z,2.57
2023-03-29T11:57:38.271Z,2.53
2023-03-29T12:00:16.179Z,2.56
2023-03-29T12:03:25.119Z,2.61
2023-03-29T12:06:05.061Z,2.60
2023-03-29T12:08:41.336Z,2.62
2023-03-29T12:11:34.352Z,2.58
2023-03-29T12:14:21.375Z,2.55
2023-03-29T12:16:53.536Z,2.71
2023-03-29T12:19:30.885Z,2.88
2023-03-29T12:22:00.661Z,3.03
2023-03-29T12:24:32.644Z,3.13
2023-03-29T12:27:31.454Z,3.17
2023-03-29T12:30:05.567Z,3.22
2023-03-29T12:32:49.470Z,3.28
2023-03-29T12:35:26.649Z,3.28
2023-03-29T12:38:21.653Z,3.30
2023-03-29T12:40:57.219Z,3.29
2023-03-29T12:43:31.474Z,3.25
2023-03-29T12:46:08.739Z,3.28
2023-03-29T12:48:40.345Z,3.31
2023-03-29T12:51:13.723Z,3.36
2023-03-29T12:53:50.986Z,3.44
2023-03-29T12:56:24.186Z,3.50
2023-03-29T12:59:10.826Z,3.53
2023-03-29T13:01:41.568Z,3.64
2023-03-29T13:04:18.557Z,3.72
2023-03-29T13:06:46.648Z,3.81
2023-03-29T13:09:42.774Z,3.86
2023-03-29T13:12:10.642Z,3.88
2023-03-29T13:14:43.885Z,4.08
2023-03-29T13:17:27.601Z,4.32
2023-03-29T13:20:11.082Z,4.60
2023-03-29T13:22:54.069Z,4.84
2023-03-29T13:25:37.196Z,5.07
2023-03-29T13:28:17.162Z,5.27
2023-03-29T13:31:06.300Z,5.21
2023-03-29T13:33:52.606Z,4.99
2023-03-29T13:36:42.373Z,4.68
2023-03-29T13:39:22.643Z,4.45
2023-03-29T13:41:54.331Z,4.35
2023-03-29T13:44:22.221Z,4.25
2023-03-29T13:47:06.503Z,4.17
2023-03-29T13:49:35.497Z,4.09
2023-03-29T13:52:16.352Z,4.05
2023-03-29T13:54:58.055Z,4.07
2023-03-29T13:57:35.025Z,4.13
2023-03-29T14:00:17.946Z,4.12
2023-03-29T14:02:58.228Z,4.08
2023-03-29T14:05:32.096Z,4.05
2023-03-29T14:08:06.956Z,4.00
2023-03-29T14:10:42.132Z,3.98
2023-03-29T14:13:14.872Z,3.97
2023-03-29T14:15:50.741Z,3.94
2023-03-29T14:18:22.850Z,3.93
2023-03-29T14:20:56.227Z,3.86
2023-03-29T14:23:28.052Z,3.79
2023-03-29T14:26:06.083Z,3.76
2023-03-29T14:28:33.991Z,3.77
2023-03-29T14:31:02.148Z,3.82
2023-03-29T14:33:34.718Z,3.89
2023-03-29T14:36:04.730Z,3.91
2023-03-29T14:38:36.346Z,3.90
2023-03-29T14:41:04.953Z,3.96
2023-03-29T14:43:33.092Z,4.05
2023-03-29T14:46:09.341Z,4.14
2023-03-29T14:48:38.090Z,4.19
2023-03-29T14:51:06.581Z,4.26
2023-03-29T14:53:38.069Z,4.30
2023-03-29T14:56:07.706Z,4.25
2023-03-29T14:58:36.424Z,4.20
2023-03-29T15:01:17.980Z,4.09
2023-03-29T15:04:10.300Z,3.98
2023-03-29T15:06:41.760Z,3.95
2023-03-29T15:09:24.925Z,3.93
2023-03-29T15:11:55.648Z,3.89
2023-03-29T15:14:27.020Z,3.87
2023-03-29T15:17:03.192Z,3.83
2023-03-29T15:19:31.937Z,3.78
2023-03-29T15:22:06.115Z,3.71
2023-03-29T15:24:34.196Z,3.65
2023-03-29T15:27:11.242Z,3.61
2023-03-29T15:29:42.369Z,3.57
2023-03-29T15:32:20.624Z,3.50
2023-03-29T15:34:58.806Z,3.40
2023-03-29T15:37:27.564Z,3.31
2023-03-29T15:39:56.463Z,3.25
2023-03-29T15:42:25.729Z,3.20
2023-03-29T15:44:55.117Z,3.11
2023-03-29T15:47:24.076Z,3.03
2023-03-29T15:49:52.075Z,2.94
2023-03-29T15:52:19.917Z,2.86
2023-03-29T15:54:47.839Z,2.80
2023-03-29T15:57:16.281Z,2.77
2023-03-29T15:59:44.820Z,2.72
2023-03-29T16:02:20.314Z,2.68
2023-03-29T16:04:48.226Z,2.63
2023-03-29T16:07:18.672Z,2.58
2023-03-29T16:09:47.043Z,2.53
2023-03-29T16:12:17.458Z,2.47
2023-03-29T16:14:45.835Z,2.44
2023-03-29T16:17:14.261Z,2.42
2023-03-29T16:19:42.432Z,2.41
2023-03-29T16:22:10.555Z,2.38
2023-03-29T16:24:39.053Z,2.35
2023-03-29T16:27:07.150Z,2.31
2023-03-29T16:29:35.366Z,2.27
2023-03-29T16:32:05.471Z,2.24
2023-03-29T16:34:36.209Z,2.20
2023-03-29T16:37:04.181Z,2.19
2023-03-29T16:39:32.269Z,2.17
2023-03-29T16:42:00.262Z,2.15
2023-03-29T16:44:28.156Z,2.11
2023-03-29T16:46:58.464Z,2.07
2023-03-29T16:49:26.664Z,2.03
2023-03-29T16:51:54.700Z,1.99
2023-03-29T16:54:25.928Z,1.96
2023-03-29T16:56:54.364Z,1.93
2023-03-29T16:59:22.515Z,1.90
2023-03-29T17:01:53.385Z,1.87
2023-03-29T17:04:21.361Z,1.82
2023-03-29T17:06:49.487Z,1.80
2023-03-29T17:09:17.785Z,1.78
2023-03-29T17:11:46.413Z,1.74
2023-03-29T17:14:14.668Z,1.71
2023-03-29T17:16:42.669Z,1.67
2023-03-29T17:19:10.738Z,1.64
2023-03-29T17:21:38.719Z,1.62
2023-03-29T17:24:07.046Z,1.59
2023-03-29T17:26:35.599Z,1.56
2023-03-29T17:29:04.509Z,1.53
2023-03-29T17:31:34.857Z,1.51
2023-03-29T17:34:03.488Z,1.48
2023-03-29T17:36:34.038Z,1.44
2023-03-29T17:39:02.840Z,1.38
2023-03-29T17:41:31.239Z,1.34
2023-03-29T17:43:59.720Z,1.30
2023-03-29T17:46:27.939Z,1.26
2023-03-29T17:48:56.145Z,1.22
2023-03-29T17:51:24.597Z,1.19
2023-03-29T17:53:52.984Z,1.16
2023-03-29T17:56:21.837Z,1.13
2023-03-29T17:58:50.673Z,1.10
2023-03-29T18:01:21.080Z,1.07
2023-03-29T18:03:49.043Z,1.05
2023-03-29T18:06:19.608Z,1.02
2023-03-29T18:08:47.898Z,0.98
2023-03-29T18:11:22.933Z,0.96
2023-03-29T18:13:54.911Z,0.93
2023-03-29T18:16:23.527Z,0.89
2023-03-29T18:18:52.041Z,0.85
2023-03-29T18:21:21.293Z,0.80
2023-03-29T18:23:50.069Z,0.75
2023-03-29T18:26:18.450Z,0.70
2023-03-29T18:28:50.843Z,0.66
2023-03-29T18:31:20.157Z,0.61
2023-03-29T18:33:48.352Z,0.58
2023-03-29T18:36:16.871Z,0.53
2023-03-29T18:38:44.997Z,0.49
2023-03-29T18:41:15.555Z,0.46
2023-03-29T18:43:44.338Z,0.44
2023-03-29T18:46:14.986Z,0.43
2023-03-29T18:48:44.793Z,0.41
2023-03-29T18:51:15.133Z,0.38
2023-03-29T18:53:44.404Z,0.36
2023-03-29T18:56:12.418Z,0.35
2023-03-29T18:58:40.308Z,0.35
2023-03-29T19:01:11.120Z,0.34
2023-03-29T19:03:39.622Z,0.33
2023-03-29T19:06:08.023Z,0.31
2023-03-29T19:08:38.747Z,0.27
2023-03-29T19:11:08.852Z,0.24
2023-03-29T19:13:38.751Z,0.22
2023-03-29T19:16:07.041Z,0.18
2023-03-29T19:18:35.287Z,0.12
2023-03-29T19:21:03.514Z,0.08
2023-03-29T19:23:31.521Z,0.06
2023-03-29T19:26:02.872Z,0.04
2023-03-29T19:28:32.585Z,0.02
2023-03-29T19:31:02.642Z,-0.00
2023-03-29T19:33:30.734Z,-0.03
2023-03-29T19:35:58.781Z,-0.08
2023-03-29T19:38:27.184Z,-0.10
2023-03-29T19:40:55.093Z,-0.16
2023-03-29T19:43:24.895Z,-0.22
2023-03-29T19:45:52.772Z,-0.28
2023-03-29T19:48:23.407Z,-0.35
2023-03-29T19:50:52.242Z,-0.41
2023-03-29T19:53:20.128Z,-0.47
2023-03-29T19:55:49.498Z,-0.52
2023-03-29T19:58:17.432Z,-0.55
2023-03-29T20:00:45.339Z,-0.58
2023-03-29T20:03:14.026Z,-0.61
2023-03-29T20:05:42.376Z,-0.66
2023-03-29T20:08:10.400Z,-0.69
2023-03-29T20:10:38.464Z,-0.72
2023-03-29T20:13:06.770Z,-0.74
2023-03-29T20:15:35.230Z,-0.77
2023-03-29T20:18:03.542Z,-0.80
2023-03-29T20:20:31.907Z,-0.83
2023-03-29T20:23:04.682Z,-0.86
2023-03-29T20:25:35.682Z,-0.90
2023-03-29T20:28:04.790Z,-0.93
2023-03-29T20:30:32.986Z,-0.99
2023-03-29T20:33:01.088Z,-1.05
2023-03-29T20:35:29.193Z,-1.11
2023-03-29T20:37:57.194Z,-1.17
2023-03-29T20:40:25.132Z,-1.22
2023-03-29T20:42:54.356Z,-1.27
2023-03-29T20:45:22.297Z,-1.31
2023-03-29T20:47:57.712Z,-1.36
2023-03-29T20:50:26.462Z,-1.41
2023-03-29T20:52:55.830Z,-1.45
2023-03-29T20:55:24.249Z,-1.48
2023-03-29T20:57:59.488Z,-1.50
2023-03-29T21:00:30.255Z,-1.52
2023-03-29T21:03:01.309Z,-1.55
2023-03-29T21:05:32.211Z,-1.57
2023-03-29T21:08:00.731Z,-1.60
2023-03-29T21:10:29.711Z,-1.61
2023-03-29T21:13:02.723Z,-1.62
2023-03-29T21:15:32.110Z,-1.64
2023-03-29T21:18:00.225Z,-1.66
2023-03-29T21:20:28.151Z,-1.68
2023-03-29T21:22:56.061Z,-1.71
2023-03-29T21:25:24.081Z,-1.73
2023-03-29T21:27:52.118Z,-1.75
2023-03-29T21:30:20.121Z,-1.77
2023-03-29T21:32:48.067Z,-1.81
2023-03-29T21:35:16.047Z,-1.86
2023-03-29T21:37:43.906Z,-1.88
2023-03-29T21:40:12.719Z,-1.90
2023-03-29T21:42:40.654Z,-1.90
2023-03-29T21:45:09.753Z,-1.90
2023-03-29T21:47:37.823Z,-1.92
2023-03-29T21:50:09.461Z,-1.93
2023-03-29T21:52:37.855Z,-1.95
2023-03-29T21:55:06.698Z,-1.97
2023-03-29T21:57:34.681Z,-1.99
2023-03-29T22:00:05.524Z,-2.01
2023-03-29T22:02:33.503Z,-2.03
2023-03-29T22:05:01.619Z,-2.03
2023-03-29T22:07:29.620Z,-2.04
2023-03-29T22:09:58.865Z,-2.06
2023-03-29T22:12:27.231Z,-2.08
2023-03-29T22:14:55.145Z,-2.10
2023-03-29T22:17:26.847Z,-2.13
2023-03-29T22:19:57.260Z,-2.15
2023-03-29T22:22:25.742Z,-2.18
2023-03-29T22:24:54.862Z,-2.21
2023-03-29T22:27:23.179Z,-2.26
2023-03-29T22:29:51.306Z,-2.31
2023-03-29T22:32:19.197Z,-2.36
2023-03-29T22:34:47.087Z,-2.39
2023-03-29T22:37:15.091Z,-2.42
2023-03-29T22:39:43.038Z,-2.46
2023-03-29T22:42:10.942Z,-2.48
2023-03-29T22:44:38.864Z,-2.50
2023-03-29T22:47:06.998Z,-2.53
2023-03-29T22:49:34.971Z,-2.55
2023-03-29T22:52:02.972Z,-2.56
2023-03-29T22:54:31.271Z,-2.58
2023-03-29T22:56:59.313Z,-2.60
2023-03-29T22:59:27.406Z,-2.62
2023-03-29T23:01:55.495Z,-2.65
2023-03-29T23:04:23.471Z,-2.67
2023-03-29T23:06:51.494Z,-2.70
2023-03-29T23:09:19.581Z,-2.73
2023-03-29T23:11:47.607Z,-2.75
2023-03-29T23:14:15.635Z,-2.78
2023-03-29T23:16:44.055Z,-2.79
2023-03-29T23:19:12.045Z,-2.80
2023-03-29T23:21:40.966Z,-2.80
2023-03-29T23:24:08.910Z,-2.81
2023-03-29T23:26:37.620Z,-2.80
2023-03-29T23:29:05.605Z,-2.80
2023-03-29T23:31:34.096Z,-2.81
2023-03-29T23:34:03.304Z,-2.81
2023-03-29T23:36:31.716Z,-2.84
2023-03-29T23:39:00.457Z,-2.86
2023-03-29T23:41:30.594Z,-2.88
2023-03-29T23:43:58.745Z,-2.91
2023-03-29T23:46:26.850Z,-2.94
2023-03-29T23:48:55.484Z,-2.97
2023-03-29T23:51:28.849Z,-3.02
2023-03-29T23:53:57.117Z,-3.05
2023-03-29T23:56:25.244Z,-3.06
2023-03-29T23:58:53.551Z,-3.07
